createdAt,value
2018-08-16T03:54:30.446Z,0.00
2018-08-16T03:55:30.057Z,0.00
2018-08-16T03:56:30.084Z,0.00
2018-08-16T03:57:30.060Z,0.00
2018-08-16T03:58:30.024Z,0.00
2018-08-16T03:59:30.034Z,0.00
2018-08-16T04:00:30.045Z,0.00
2018-08-16T04:04:53.762Z,5.62
2018-08-16T04:05:53.889Z,5.62
2018-08-16T04:08:16.407Z,5.62
2018-08-16T04:09:15.762Z,5.62
2018-08-16T04:10:16.841Z,11.25
2018-08-16T04:23:08.089Z,28.12
2018-08-16T04:24:07.759Z,33.75
2018-08-16T04:25:07.709Z,33.75
2018-08-16T04:26:07.746Z,39.38
2018-08-16T04:27:07.622Z,39.38
2018-08-16T04:28:07.599Z,45.00
2018-08-16T04:29:07.638Z,45.00
2018-08-16T04:30:08.489Z,50.62
2018-08-16T04:31:07.582Z,50.62
2018-08-16T04:32:07.515Z,56.25
2018-08-16T04:33:07.543Z,56.25
2018-08-16T04:34:07.528Z,61.88
2018-08-16T04:35:07.534Z,61.88
2018-08-16T04:36:07.536Z,67.50
2018-08-16T04:37:07.460Z,67.50
2018-08-16T04:38:07.463Z,73.12
2018-08-16T04:39:07.438Z,78.75
2018-08-16T04:40:07.426Z,78.75
2018-08-16T04:41:07.460Z,84.38
2018-08-16T04:42:07.450Z,90.00
2018-08-16T04:43:07.400Z,90.00
2018-08-16T04:44:07.597Z,95.62
2018-08-16T04:45:07.381Z,101.25
2018-08-16T04:46:07.379Z,106.88
2018-08-16T04:47:07.389Z,106.88
2018-08-16T04:48:07.359Z,112.50
2018-08-16T04:49:07.335Z,118.12
2018-08-16T04:50:07.308Z,123.75
2018-08-16T04:51:07.314Z,129.38
2018-08-16T04:52:07.293Z,129.38
2018-08-16T04:53:07.309Z,135.00
2018-08-16T04:54:07.277Z,140.62
2018-08-16T04:55:07.291Z,146.25
2018-08-16T04:56:07.249Z,146.25
2018-08-16T04:57:07.236Z,151.88
2018-08-16T04:58:07.238Z,157.50
2018-08-16T04:59:07.250Z,157.50
2018-08-16T05:00:07.255Z,163.12
2018-08-16T05:01:07.275Z,168.75
2018-08-16T05:02:07.251Z,168.75
2018-08-16T05:03:07.258Z,174.38
2018-08-16T05:04:07.195Z,174.38
2018-08-16T05:05:07.275Z,180.00
2018-08-16T05:06:07.267Z,185.62
2018-08-16T05:07:07.120Z,185.62
2018-08-16T05:08:07.118Z,191.25
2018-08-16T05:09:07.154Z,196.88
2018-08-16T05:10:07.126Z,196.88
2018-08-16T05:11:07.152Z,202.50
2018-08-16T05:12:07.086Z,202.50
2018-08-16T05:13:07.068Z,208.12
2018-08-16T05:14:07.065Z,213.75
2018-08-16T05:15:07.099Z,213.75
2018-08-16T05:16:07.044Z,219.38
2018-08-16T05:17:07.235Z,225.00
2018-08-16T05:18:06.987Z,225.00
2018-08-16T05:19:06.990Z,230.62
2018-08-16T05:20:07.000Z,236.25
2018-08-16T05:21:07.032Z,236.25
2018-08-16T05:22:06.951Z,241.88
2018-08-16T05:23:06.944Z,247.50
2018-08-16T05:24:06.931Z,247.50
2018-08-16T05:25:06.978Z,253.12
2018-08-16T05:26:06.982Z,258.75
2018-08-16T05:27:06.900Z,258.75
2018-08-16T05:28:06.963Z,264.38
2018-08-16T05:29:06.893Z,270.00
2018-08-16T05:30:06.862Z,270.00
2018-08-16T05:31:06.907Z,275.62
2018-08-16T05:32:06.908Z,275.62
2018-08-16T05:33:06.842Z,281.25
2018-08-16T05:34:06.820Z,286.88
2018-08-16T05:35:06.827Z,286.88
2018-08-16T05:36:06.832Z,292.50
2018-08-16T05:37:06.814Z,292.50
2018-08-16T05:38:06.793Z,292.50
2018-08-16T05:39:06.768Z,298.12
2018-08-16T05:40:06.784Z,298.12
2018-08-16T05:41:06.759Z,303.75
2018-08-16T05:42:06.740Z,309.38
2018-08-16T05:43:06.850Z,309.38
2018-08-16T05:44:06.705Z,315.00
2018-08-16T05:45:06.693Z,320.62
2018-08-16T05:46:06.812Z,320.62
2018-08-16T05:47:06.704Z,326.25
2018-08-16T05:48:07.528Z,331.88
2018-08-16T05:49:06.660Z,331.88
2018-08-16T05:50:06.635Z,337.50
2018-08-16T05:51:06.620Z,337.50
2018-08-16T05:52:06.679Z,343.12
2018-08-16T05:53:06.636Z,348.75
2018-08-16T05:54:06.623Z,348.75
2018-08-16T05:55:06.618Z,354.38
2018-08-16T05:56:06.580Z,360.00
2018-08-16T05:57:06.566Z,365.62
2018-08-16T05:58:06.585Z,365.62
2018-08-16T05:59:06.545Z,371.25
2018-08-16T06:00:07.478Z,376.88
2018-08-16T06:01:06.512Z,382.50
2018-08-16T06:02:06.503Z,382.50
2018-08-16T06:04:23.872Z,393.75
2018-08-16T06:06:44.264Z,405.00
2018-08-16T06:07:43.817Z,410.62
2018-08-16T06:08:52.296Z,416.25
2018-08-16T06:18:33.487Z,455.62
2018-08-16T06:19:33.063Z,461.25
2018-08-16T06:20:32.927Z,466.88
2018-08-16T06:21:33.045Z,472.50
2018-08-16T06:22:32.872Z,478.12
2018-08-16T06:23:32.867Z,483.75
2018-08-16T06:24:32.883Z,489.38
2018-08-16T06:25:32.893Z,489.38
2018-08-16T06:26:32.820Z,495.00
2018-08-16T06:27:32.886Z,495.00
2018-08-16T06:28:32.852Z,500.62
2018-08-16T06:29:32.843Z,500.62
2018-08-16T06:30:32.772Z,506.25
2018-08-16T06:31:32.824Z,506.25
2018-08-16T06:32:32.760Z,511.88
2018-08-16T06:33:32.761Z,517.50
2018-08-16T06:34:32.791Z,517.50
2018-08-16T06:35:32.790Z,523.12
2018-08-16T06:36:32.805Z,528.75
2018-08-16T06:37:32.733Z,528.75
2018-08-16T06:38:32.692Z,534.38
2018-08-16T06:39:32.679Z,534.38
2018-08-16T06:40:32.693Z,545.62
2018-08-16T06:41:32.660Z,556.88
2018-08-16T06:42:32.733Z,556.88
2018-08-16T06:43:32.656Z,562.50
2018-08-16T06:44:32.690Z,568.12
2018-08-16T06:45:32.618Z,573.75
2018-08-16T06:46:32.602Z,579.38
2018-08-16T06:47:32.649Z,585.00
2018-08-16T06:48:32.582Z,590.62
2018-08-16T06:49:32.577Z,596.25
2018-08-16T06:50:32.554Z,596.25
2018-08-16T06:51:32.566Z,601.88
2018-08-16T06:52:32.563Z,607.50
2018-08-16T06:53:32.523Z,607.50
2018-08-16T06:54:32.515Z,613.12
2018-08-16T07:01:14.910Z,641.25
2018-08-16T07:06:46.780Z,669.38
2018-08-16T07:07:46.235Z,675.00
2018-08-16T07:08:46.732Z,680.62
2018-08-16T07:09:46.361Z,686.25
2018-08-16T07:10:47.766Z,697.50
2018-08-16T07:11:49.037Z,691.88
2018-08-16T07:12:47.969Z,703.12
2018-08-16T07:13:46.058Z,697.50
2018-08-16T07:14:46.082Z,703.12
2018-08-16T07:15:46.012Z,708.75
2018-08-16T07:16:46.006Z,714.38
2018-08-16T07:17:45.977Z,714.38
2018-08-16T07:18:45.972Z,720.00
2018-08-16T07:19:45.923Z,720.00
2018-08-16T07:20:45.924Z,720.00
2018-08-16T07:21:45.915Z,725.62
2018-08-16T07:22:46.029Z,731.25
2018-08-16T07:23:45.986Z,736.88
2018-08-16T07:24:46.059Z,742.50
2018-08-16T07:25:45.985Z,748.12
2018-08-16T07:26:46.749Z,753.75
2018-08-16T07:27:45.951Z,759.38
2018-08-16T07:28:46.025Z,770.62
2018-08-16T07:29:45.803Z,776.25
2018-08-16T07:30:45.824Z,776.25
2018-08-16T07:31:45.804Z,776.25
2018-08-16T07:32:45.773Z,776.25
2018-08-16T07:33:45.826Z,787.50
2018-08-16T07:34:45.754Z,787.50
2018-08-16T07:35:45.771Z,793.12
2018-08-16T07:36:45.752Z,798.75
2018-08-16T07:37:45.856Z,810.00
2018-08-16T07:38:45.704Z,810.00
2018-08-16T07:39:45.693Z,810.00
2018-08-16T07:40:45.681Z,810.00
2018-08-16T07:41:45.717Z,815.62
2018-08-16T07:42:45.664Z,815.62
2018-08-16T07:43:45.687Z,815.62
2018-08-16T07:44:45.700Z,815.62
2018-08-16T07:45:45.813Z,821.25
2018-08-16T07:46:45.637Z,826.88
2018-08-16T07:47:45.620Z,832.50
2018-08-16T07:48:45.652Z,838.12
2018-08-16T07:49:45.581Z,956.25
2018-08-16T07:50:45.569Z,1181.25
2018-08-16T07:51:45.837Z,1333.12
2018-08-16T07:52:45.583Z,1715.62
2018-08-16T07:53:45.535Z,2182.50
2018-08-16T07:54:45.518Z,2677.50
2018-08-16T07:55:45.518Z,3031.88
2018-08-16T07:56:45.521Z,3431.25
2018-08-16T07:57:45.606Z,3583.12
2018-08-16T07:58:45.499Z,3695.62
2018-08-16T07:59:45.469Z,3746.25
2018-08-16T08:00:45.519Z,3706.88
2018-08-16T08:01:45.469Z,3757.50
2018-08-16T08:02:45.430Z,3886.88
2018-08-16T08:03:45.462Z,3819.38
2018-08-16T08:04:45.528Z,3875.62
2018-08-16T08:05:45.450Z,3948.75
2018-08-16T08:06:45.390Z,4078.12
2018-08-16T08:07:45.399Z,4033.12
2018-08-16T08:08:45.441Z,3931.88
2018-08-16T08:09:45.425Z,3853.12
2018-08-16T08:10:45.350Z,4111.88
2018-08-16T08:11:45.384Z,4123.12
2018-08-16T08:12:45.368Z,4044.38
2018-08-16T08:15:44.965Z,4095.00
2018-08-16T08:16:44.948Z,3915.00
2018-08-16T08:17:44.822Z,3937.50
2018-08-16T08:18:45.011Z,4016.25
2018-08-16T08:19:44.888Z,3999.38
2018-08-16T08:20:44.839Z,3988.12
2018-08-16T08:21:44.792Z,4072.50
2018-08-16T08:22:44.828Z,4246.88
2018-08-16T08:23:44.764Z,4387.50
2018-08-16T08:24:44.763Z,4258.12
2018-08-16T08:25:45.289Z,4134.38
2018-08-16T08:26:44.733Z,4117.50
2018-08-16T08:27:44.728Z,4162.50
2018-08-16T08:28:44.806Z,4117.50
2018-08-16T08:29:46.337Z,4095.00
2018-08-16T08:30:44.843Z,4280.62
2018-08-16T08:31:44.786Z,4365.00
2018-08-16T08:32:44.682Z,4269.38
2018-08-16T08:33:59.998Z,4235.62
2018-08-16T08:34:44.733Z,4246.88
2018-08-16T08:35:44.868Z,4258.12
2018-08-16T08:36:44.627Z,4291.88
2018-08-16T08:37:44.702Z,4353.75
2018-08-16T08:38:44.611Z,4415.62
2018-08-16T08:39:44.588Z,4443.75
2018-08-16T08:40:44.609Z,4471.88
2018-08-16T08:41:44.587Z,4398.75
2018-08-16T08:42:44.558Z,4365.00
2018-08-16T08:43:44.561Z,4522.50
2018-08-16T08:44:44.548Z,4460.62
2018-08-16T08:45:44.533Z,4381.88
2018-08-16T08:46:44.545Z,4505.62
2018-08-16T08:47:44.526Z,4601.25
2018-08-16T08:48:44.509Z,4550.62
2018-08-16T08:49:44.497Z,4381.88
2018-08-16T08:50:44.504Z,4359.38
2018-08-16T08:51:44.566Z,4438.12
2018-08-16T08:52:44.482Z,4320.00
2018-08-16T08:53:44.446Z,4426.88
2018-08-16T08:54:44.441Z,4258.12
2018-08-16T08:55:44.471Z,4365.00
2018-08-16T08:56:44.420Z,3875.62
2018-08-16T08:57:44.441Z,4466.25
2018-08-16T08:58:44.403Z,4533.75
2018-08-16T08:59:44.410Z,4426.88
2018-08-16T09:00:44.439Z,4629.38
2018-08-16T09:01:44.410Z,4584.38
2018-08-16T09:02:44.389Z,4500.00
2018-08-16T09:03:44.355Z,4314.38
2018-08-16T09:04:44.359Z,4725.00
2018-08-16T09:05:44.334Z,4488.75
2018-08-16T09:06:44.392Z,4612.50
2018-08-16T09:07:44.339Z,4747.50
2018-08-16T09:08:44.365Z,4657.50
2018-08-16T09:09:44.317Z,4629.38
2018-08-16T09:10:44.293Z,4747.50
2018-08-16T09:12:55.638Z,4196.25
2018-08-16T09:13:55.312Z,4196.25
2018-08-16T09:14:55.097Z,4308.75
2018-08-16T09:15:55.038Z,4359.38
2018-08-16T09:16:55.007Z,4657.50
2018-08-16T09:17:55.025Z,4741.88
2018-08-16T09:18:55.000Z,4888.12
2018-08-16T09:19:54.997Z,5006.25
2018-08-16T09:20:54.964Z,5000.62
2018-08-16T09:21:54.999Z,5045.62
2018-08-16T09:22:54.967Z,5045.62
2018-08-16T09:23:54.938Z,5073.75
2018-08-16T09:24:54.946Z,5011.88
2018-08-16T09:25:54.918Z,5040.00
2018-08-16T09:26:54.903Z,5051.25
2018-08-16T09:27:54.917Z,5085.00
2018-08-16T09:28:54.900Z,5197.50
2018-08-16T09:29:54.908Z,5191.88
2018-08-16T09:30:54.872Z,5079.38
2018-08-16T09:31:54.876Z,4871.25
2018-08-16T09:32:54.898Z,5034.38
2018-08-16T09:33:54.841Z,4815.00
2018-08-16T09:36:37.535Z,4646.25
2018-08-16T09:37:37.007Z,4730.62
2018-08-16T09:38:36.369Z,3813.75
2018-08-16T09:39:36.736Z,3431.25
2018-08-16T09:40:36.346Z,3003.75
2018-08-16T09:41:37.284Z,3780.00
2018-08-16T09:43:53.431Z,5394.38
2018-08-16T09:44:53.260Z,5366.25
2018-08-16T09:45:57.163Z,5405.62
2018-08-16T09:46:53.336Z,5433.75
2018-08-16T09:47:53.153Z,5405.62
2018-08-16T09:50:59.473Z,5236.88
2018-08-16T09:51:59.242Z,5051.25
2018-08-16T09:52:59.188Z,5169.38
2018-08-16T09:53:59.370Z,5152.50
2018-08-16T09:54:59.131Z,5467.50
2018-08-16T09:55:58.998Z,5377.50
2018-08-16T09:56:59.012Z,5180.62
2018-08-16T09:57:58.953Z,4933.12
2018-08-16T09:58:58.996Z,5186.25
2018-08-16T09:59:58.936Z,5400.00
2018-08-16T10:00:59.008Z,5366.25
2018-08-16T10:01:58.965Z,5085.00
2018-08-16T10:02:58.922Z,4966.88
2018-08-16T10:03:58.921Z,5366.25
2018-08-16T10:04:58.934Z,5366.25
2018-08-16T10:05:58.882Z,5214.38
2018-08-16T10:06:58.880Z,5495.62
2018-08-16T10:07:58.899Z,5461.88
2018-08-16T10:08:58.855Z,5546.25
2018-08-16T10:09:58.875Z,5563.12
2018-08-16T10:10:58.837Z,5563.12
2018-08-16T10:11:58.867Z,5422.50
2018-08-16T10:12:58.843Z,5265.00
2018-08-16T10:13:58.812Z,4899.38
2018-08-16T10:14:58.811Z,5130.00
2018-08-16T10:15:59.133Z,5113.12
2018-08-16T10:16:58.794Z,5068.12
2018-08-16T10:17:58.786Z,5310.00
2018-08-16T10:18:58.813Z,5051.25
2018-08-16T10:19:58.762Z,4966.88
2018-08-16T10:20:58.970Z,4837.50
2018-08-16T10:21:58.815Z,5056.88
2018-08-16T10:22:58.764Z,5090.62
2018-08-16T10:23:58.748Z,4978.12
2018-08-16T10:24:58.863Z,5152.50
2018-08-16T10:25:58.733Z,4505.62
2018-08-16T10:26:58.829Z,4511.25
2018-08-16T10:27:58.773Z,5073.75
2018-08-16T10:28:58.714Z,5191.88
2018-08-16T10:29:58.719Z,5028.75
2018-08-16T10:30:58.684Z,4466.25
2018-08-16T10:31:58.656Z,4651.88
2018-08-16T10:32:58.666Z,4995.00
2018-08-16T10:33:58.650Z,5006.25
2018-08-16T10:34:58.669Z,5028.75
2018-08-16T10:35:58.677Z,4938.75
2018-08-16T10:36:58.668Z,4989.38
2018-08-16T10:37:58.643Z,5073.75
2018-08-16T10:38:58.608Z,5596.88
2018-08-16T10:39:58.614Z,5613.75
2018-08-16T10:40:58.578Z,4764.38
2018-08-16T10:41:58.607Z,5073.75
2018-08-16T10:42:58.596Z,4640.62
2018-08-16T10:43:58.573Z,4905.00
2018-08-16T10:44:58.571Z,4820.62
2018-08-16T10:45:58.534Z,5034.38
2018-08-16T10:46:59.263Z,4590.00
2018-08-16T10:47:58.543Z,3892.50
2018-08-16T10:48:58.576Z,4831.88
2018-08-16T10:49:58.583Z,5242.50
2018-08-16T10:50:58.522Z,5343.75
2018-08-16T10:51:58.494Z,5113.12
2018-08-16T10:52:58.487Z,4522.50
2018-08-16T10:53:58.519Z,4741.88
2018-08-16T10:54:58.803Z,5175.00
2018-08-16T10:55:59.644Z,5298.75
2018-08-16T10:56:58.907Z,5400.00
2018-08-16T10:57:58.434Z,5495.62
2018-08-16T10:58:58.463Z,5135.62
2018-08-16T10:59:58.429Z,5658.75
2018-08-16T11:00:58.425Z,5866.88
2018-08-16T11:01:58.495Z,5563.12
2018-08-16T11:02:58.413Z,5056.88
2018-08-16T11:03:58.413Z,5484.38
2018-08-16T11:04:58.476Z,5720.62
2018-08-16T11:05:58.376Z,5512.50
2018-08-16T11:06:58.388Z,5332.50
2018-08-16T11:07:58.355Z,5501.25
2018-08-16T11:08:58.427Z,5473.12
2018-08-16T11:09:58.382Z,5596.88
2018-08-16T11:10:58.322Z,5416.88
2018-08-16T11:11:58.371Z,5619.38
2018-08-16T11:12:58.348Z,5422.50
2018-08-16T11:13:58.422Z,5422.50
2018-08-16T11:14:58.298Z,5349.38
2018-08-16T11:15:58.357Z,5231.25
2018-08-16T11:16:58.283Z,5383.12
2018-08-16T11:17:58.301Z,5450.62
2018-08-16T11:18:58.343Z,5383.12
2018-08-16T11:19:58.287Z,5298.75
2018-08-16T11:20:58.265Z,5281.88
2018-08-16T11:21:58.232Z,5265.00
2018-08-16T11:22:58.262Z,5422.50
2018-08-16T11:23:58.212Z,5360.62
2018-08-16T11:24:58.202Z,5023.12
2018-08-16T11:25:58.200Z,5130.00
2018-08-16T11:26:58.224Z,5191.88
2018-08-16T11:27:58.174Z,5090.62
2018-08-16T11:28:58.185Z,4944.38
2018-08-16T11:29:58.218Z,5006.25
2018-08-16T11:30:58.737Z,4753.12
2018-08-16T11:31:58.216Z,5056.88
2018-08-16T11:32:58.139Z,4798.12
2018-08-16T11:33:58.178Z,4950.00
2018-08-16T11:34:58.162Z,5017.50
2018-08-16T11:35:58.143Z,4725.00
2018-08-16T11:36:58.121Z,5310.00
2018-08-16T11:37:58.186Z,5338.12
2018-08-16T11:38:58.150Z,5512.50
2018-08-16T11:40:00.614Z,5439.38
2018-08-16T11:40:58.097Z,5422.50
2018-08-16T11:41:58.058Z,5315.62
2018-08-16T11:42:58.062Z,5242.50
2018-08-16T11:43:58.102Z,5180.62
2018-08-16T11:44:58.083Z,4871.25
2018-08-16T11:45:58.019Z,5197.50
2018-08-16T11:46:58.098Z,5152.50
2018-08-16T11:47:58.008Z,5276.25
2018-08-16T11:48:58.003Z,5450.62
2018-08-16T11:49:58.082Z,5366.25
2018-08-16T11:50:57.983Z,5265.00
2018-08-16T11:51:58.848Z,5124.38
2018-08-16T11:52:57.984Z,4938.75
2018-08-16T11:53:57.998Z,4905.00
2018-08-16T11:54:57.957Z,4719.38
2018-08-16T11:55:57.963Z,4876.88
2018-08-16T11:56:57.933Z,5040.00
2018-08-16T11:57:57.922Z,5175.00
2018-08-16T11:58:57.917Z,5231.25
2018-08-16T11:59:57.911Z,5107.50
2018-08-16T12:00:57.922Z,4972.50
2018-08-16T12:01:57.948Z,5124.38
2018-08-16T12:02:57.879Z,5011.88
2018-08-16T12:03:58.017Z,4663.12
2018-08-16T12:04:57.870Z,4741.88
2018-08-16T12:05:57.849Z,4044.38
2018-08-16T12:07:00.592Z,4713.75
2018-08-16T12:07:57.845Z,4123.12
2018-08-16T12:08:57.869Z,4500.00
2018-08-16T12:09:57.851Z,5011.88
2018-08-16T12:10:57.839Z,4927.50
2018-08-16T12:11:57.796Z,4770.00
2018-08-16T12:12:57.797Z,5011.88
2018-08-16T12:13:57.774Z,3622.50
2018-08-16T12:14:57.801Z,4882.50
2018-08-16T12:15:57.774Z,4207.50
2018-08-16T12:16:57.748Z,4561.88
2018-08-16T12:17:57.775Z,4893.75
2018-08-16T12:18:57.749Z,4809.38
2018-08-16T12:19:57.731Z,5028.75
2018-08-16T12:20:57.771Z,4657.50
2018-08-16T12:21:57.729Z,4685.62
2018-08-16T12:22:57.693Z,4719.38
2018-08-16T12:23:57.688Z,4511.25
2018-08-16T12:24:57.689Z,4618.12
2018-08-16T12:25:57.688Z,4359.38
2018-08-16T12:26:57.686Z,4443.75
2018-08-16T12:27:57.661Z,4595.62
2018-08-16T12:28:57.729Z,4910.62
2018-08-16T12:29:57.633Z,4888.12
2018-08-16T12:30:57.625Z,4674.38
2018-08-16T12:31:57.650Z,4978.12
2018-08-16T12:32:57.693Z,4809.38
2018-08-16T12:33:57.608Z,4477.50
2018-08-16T12:34:57.710Z,3864.38
2018-08-16T12:35:57.585Z,3903.75
2018-08-16T12:36:57.573Z,4123.12
2018-08-16T12:37:57.577Z,4111.88
2018-08-16T12:38:57.558Z,3808.12
2018-08-16T12:39:57.569Z,3481.88
2018-08-16T12:40:57.570Z,3555.00
2018-08-16T12:41:57.553Z,3526.88
2018-08-16T12:42:57.519Z,3099.38
2018-08-16T12:43:57.529Z,3346.88
2018-08-16T12:44:57.505Z,3285.00
2018-08-16T12:45:57.488Z,3875.62
2018-08-16T12:46:57.498Z,3549.38
2018-08-16T12:47:57.468Z,3881.25
2018-08-16T12:48:57.684Z,4016.25
2018-08-16T12:49:57.467Z,4066.88
2018-08-16T12:50:57.465Z,3819.38
2018-08-16T12:51:57.433Z,4066.88
2018-08-16T12:52:57.516Z,3931.88
2018-08-16T12:53:57.541Z,4123.12
2018-08-16T12:54:57.471Z,4050.00
2018-08-16T12:55:57.400Z,4027.50
2018-08-16T12:56:57.424Z,3746.25
2018-08-16T12:57:57.406Z,3723.75
2018-08-16T12:58:57.384Z,3650.62
2018-08-16T12:59:57.354Z,3774.38
2018-08-16T13:00:57.348Z,4066.88
2018-08-16T13:01:57.521Z,4010.62
2018-08-16T13:02:57.370Z,3661.88
2018-08-16T13:03:57.353Z,4185.00
2018-08-16T13:04:57.311Z,4106.25
2018-08-16T13:05:57.300Z,3875.62
2018-08-16T13:06:57.294Z,3847.50
2018-08-16T13:07:57.336Z,3976.88
2018-08-16T13:08:57.374Z,3993.75
2018-08-16T13:09:57.266Z,4128.75
2018-08-16T13:10:57.279Z,3988.12
2018-08-16T13:11:57.351Z,3841.88
2018-08-16T13:12:57.236Z,3324.38
2018-08-16T13:13:57.229Z,3245.62
2018-08-16T13:14:57.264Z,3481.88
2018-08-16T13:15:57.209Z,3504.38
2018-08-16T13:16:57.199Z,3285.00
2018-08-16T13:17:57.200Z,3330.00
2018-08-16T13:18:57.201Z,3583.12
2018-08-16T13:19:57.229Z,3600.00
2018-08-16T13:20:57.171Z,3706.88
2018-08-16T13:21:57.149Z,3819.38
2018-08-16T13:22:57.141Z,3555.00
2018-08-16T13:23:57.146Z,3521.25
2018-08-16T13:24:57.148Z,3510.00
2018-08-16T13:25:57.113Z,3611.25
2018-08-16T13:26:57.115Z,3639.38
2018-08-16T13:27:57.093Z,3431.25
2018-08-16T13:28:57.092Z,3380.62
2018-08-16T13:29:57.162Z,3543.75
2018-08-16T13:30:57.115Z,3487.50
2018-08-16T13:31:57.061Z,3425.62
2018-08-16T13:32:57.059Z,3633.75
2018-08-16T13:33:57.040Z,3189.38
2018-08-16T13:34:57.040Z,2812.50
2018-08-16T13:35:57.053Z,2880.00
2018-08-16T13:36:57.051Z,2851.88
2018-08-16T13:40:37.707Z,2553.75
2018-08-16T13:41:37.274Z,2548.12
2018-08-16T13:42:37.171Z,2013.75
2018-08-16T13:43:37.171Z,2002.50
2018-08-16T13:44:37.145Z,2036.25
2018-08-16T13:45:37.150Z,2435.62
2018-08-16T13:46:37.222Z,2536.88
2018-08-16T13:47:37.119Z,2120.62
2018-08-16T13:48:37.130Z,1479.38
2018-08-16T13:49:37.167Z,1417.50
2018-08-16T13:50:37.144Z,1378.12
2018-08-16T13:51:37.091Z,1321.88
2018-08-16T13:52:37.226Z,1293.75
2018-08-16T13:53:37.067Z,1271.25
2018-08-16T13:54:37.051Z,1243.12
2018-08-16T13:55:37.068Z,1220.62
2018-08-16T13:56:37.121Z,1198.12
2018-08-16T13:57:37.068Z,1192.50
2018-08-16T13:58:37.027Z,1192.50
2018-08-16T13:59:37.005Z,1181.25
2018-08-16T14:00:37.056Z,1175.62
2018-08-16T14:01:37.005Z,1181.25
2018-08-16T14:02:36.982Z,1164.38
2018-08-16T14:03:37.084Z,1158.75
2018-08-16T14:04:36.984Z,1141.88
2018-08-16T14:05:36.939Z,1125.00
2018-08-16T14:06:36.930Z,1091.25
2018-08-16T14:07:36.957Z,1063.12
2018-08-16T14:08:37.333Z,1051.88
2018-08-16T14:09:36.901Z,1046.25
2018-08-16T14:10:36.888Z,1035.00
2018-08-16T14:11:36.877Z,1040.62
2018-08-16T14:12:36.911Z,1051.88
2018-08-16T14:13:36.977Z,1023.75
2018-08-16T14:14:36.878Z,1023.75
2018-08-16T14:15:36.850Z,1018.12
2018-08-16T14:16:36.879Z,1006.88
2018-08-16T14:17:36.862Z,990.00
2018-08-16T14:18:36.907Z,978.75
2018-08-16T14:19:36.844Z,967.50
2018-08-16T14:20:36.784Z,961.88
2018-08-16T14:21:36.860Z,956.25
2018-08-16T14:22:36.829Z,950.62
2018-08-16T14:23:36.759Z,945.00
2018-08-16T14:24:36.752Z,939.38
2018-08-16T14:25:36.976Z,933.75
2018-08-16T14:26:36.774Z,922.50
2018-08-16T14:27:36.831Z,911.25
2018-08-16T14:28:36.804Z,905.62
2018-08-16T14:29:36.712Z,894.38
2018-08-16T14:30:36.697Z,877.50
2018-08-16T14:31:36.678Z,849.38
2018-08-16T14:32:36.663Z,832.50
2018-08-16T14:33:36.809Z,810.00
2018-08-16T14:34:36.715Z,810.00
2018-08-16T14:35:36.690Z,804.38
2018-08-16T14:36:36.627Z,804.38
2018-08-16T14:37:36.666Z,810.00
2018-08-16T14:38:36.831Z,804.38
2018-08-16T14:39:36.627Z,804.38
2018-08-16T14:40:37.329Z,815.62
2018-08-16T14:41:36.574Z,804.38
2018-08-16T14:42:36.565Z,810.00
2018-08-16T14:43:36.559Z,804.38
2018-08-16T14:44:36.564Z,804.38
2018-08-16T14:45:36.579Z,804.38
2018-08-16T14:46:36.660Z,798.75
2018-08-16T14:47:36.512Z,798.75
2018-08-16T14:48:36.505Z,810.00
2018-08-16T14:49:36.502Z,826.88
2018-08-16T14:50:36.545Z,826.88
2018-08-16T14:51:36.487Z,826.88
2018-08-16T14:52:36.486Z,815.62
2018-08-16T14:53:36.547Z,832.50
2018-08-16T14:54:36.450Z,843.75
2018-08-16T14:55:36.547Z,849.38
2018-08-16T14:56:36.446Z,838.12
2018-08-16T14:57:36.453Z,838.12
2018-08-16T14:58:36.408Z,826.88
2018-08-16T14:59:36.486Z,826.88
2018-08-16T15:00:36.401Z,815.62
2018-08-16T15:01:36.367Z,798.75
2018-08-16T15:02:36.375Z,793.12
2018-08-16T15:03:36.448Z,770.62
2018-08-16T15:04:36.344Z,759.38
2018-08-16T15:05:36.328Z,742.50
2018-08-16T15:06:36.344Z,748.12
2018-08-16T15:07:36.426Z,742.50
2018-08-16T15:08:36.328Z,725.62
2018-08-16T15:09:59.388Z,703.12
2018-08-16T15:10:36.422Z,714.38
2018-08-16T15:11:36.280Z,714.38
2018-08-16T15:12:37.197Z,714.38
2018-08-16T15:13:36.246Z,731.25
2018-08-16T15:14:36.286Z,753.75
2018-08-16T15:15:36.297Z,748.12
2018-08-16T15:16:36.234Z,753.75
2018-08-16T15:17:36.287Z,759.38
2018-08-16T15:18:36.232Z,765.00
2018-08-16T15:19:37.258Z,759.38
2018-08-16T15:20:38.235Z,753.75
2018-08-16T15:21:36.204Z,753.75
2018-08-16T15:22:36.152Z,742.50
2018-08-16T15:23:36.272Z,731.25
2018-08-16T15:24:36.275Z,680.62
2018-08-16T15:25:36.466Z,675.00
2018-08-16T15:26:36.255Z,669.38
2018-08-16T15:27:36.124Z,652.50
2018-08-16T15:28:36.384Z,663.75
2018-08-16T15:29:36.080Z,663.75
2018-08-16T15:30:36.365Z,652.50
2018-08-16T15:31:36.165Z,646.88
2018-08-16T15:32:36.093Z,624.38
2018-08-16T15:33:36.762Z,635.62
2018-08-16T15:34:36.075Z,646.88
2018-08-16T15:35:36.242Z,658.12
2018-08-16T15:36:36.037Z,680.62
2018-08-16T15:37:36.078Z,680.62
2018-08-16T15:38:36.053Z,675.00
2018-08-16T15:39:36.094Z,669.38
2018-08-16T15:40:35.969Z,669.38
2018-08-16T15:41:35.955Z,675.00
2018-08-16T15:42:35.996Z,691.88
2018-08-16T15:43:35.978Z,708.75
2018-08-16T15:44:35.920Z,714.38
2018-08-16T15:45:35.907Z,720.00
2018-08-16T15:46:35.985Z,720.00
2018-08-16T15:47:36.185Z,725.62
2018-08-16T15:48:35.916Z,697.50
2018-08-16T15:49:35.929Z,675.00
2018-08-16T15:50:35.948Z,663.75
2018-08-16T15:51:35.890Z,658.12
2018-08-16T15:52:35.858Z,646.88
2018-08-16T15:53:35.822Z,641.25
2018-08-16T15:54:36.045Z,663.75
2018-08-16T15:55:35.871Z,663.75
2018-08-16T15:56:35.837Z,646.88
2018-08-16T15:57:35.793Z,652.50
2018-08-16T15:58:35.792Z,630.00
2018-08-16T15:59:35.780Z,590.62
2018-08-16T16:00:35.959Z,596.25
2018-08-16T16:01:35.770Z,601.88
2018-08-16T16:02:35.760Z,596.25
2018-08-16T16:03:35.740Z,596.25
2018-08-16T16:04:35.758Z,613.12
2018-08-16T16:05:35.831Z,613.12
2018-08-16T16:06:35.807Z,601.88
2018-08-16T16:07:35.686Z,596.25
2018-08-16T16:08:35.673Z,590.62
2018-08-16T16:09:35.709Z,573.75
2018-08-16T16:10:35.644Z,579.38
2018-08-16T16:11:35.637Z,545.62
2018-08-16T16:12:35.709Z,523.12
2018-08-16T16:13:35.634Z,523.12
2018-08-16T16:14:35.599Z,528.75
2018-08-16T16:15:35.584Z,523.12
2018-08-16T16:16:35.584Z,556.88
2018-08-16T16:17:36.140Z,545.62
2018-08-16T16:18:35.625Z,540.00
2018-08-16T16:19:35.615Z,545.62
2018-08-16T16:27:19.471Z,523.12
2018-08-16T16:28:19.083Z,511.88
2018-08-16T16:29:20.322Z,489.38
2018-08-16T16:30:18.871Z,478.12
2018-08-16T16:31:18.891Z,472.50
2018-08-16T16:32:18.845Z,472.50
2018-08-16T16:33:18.908Z,472.50
2018-08-16T16:34:18.946Z,455.62
2018-08-16T16:35:18.816Z,433.12
2018-08-16T16:36:19.779Z,427.50
2018-08-16T16:37:18.860Z,421.88
2018-08-16T16:38:18.799Z,410.62
2018-08-16T16:39:18.805Z,405.00
2018-08-16T16:40:18.854Z,399.38
2018-08-16T16:41:18.751Z,388.12
2018-08-16T16:42:18.740Z,382.50
2018-08-16T16:43:18.728Z,365.62
2018-08-16T16:44:18.728Z,365.62
2018-08-16T16:45:18.760Z,371.25
2018-08-16T16:46:18.728Z,360.00
2018-08-16T16:48:11.853Z,354.38
2018-08-16T16:49:11.390Z,365.62
2018-08-16T16:50:11.389Z,365.62
2018-08-16T16:51:11.338Z,371.25
2018-08-16T16:52:11.379Z,371.25
2018-08-16T16:53:11.297Z,376.88
2018-08-16T16:54:11.287Z,388.12
2018-08-16T16:55:11.279Z,388.12
2018-08-16T16:56:13.057Z,393.75
2018-08-16T16:57:11.272Z,399.38
2018-08-16T16:58:11.245Z,393.75
2018-08-16T16:59:11.294Z,399.38
2018-08-16T17:00:11.228Z,393.75
2018-08-16T17:01:11.249Z,393.75
2018-08-16T17:02:11.248Z,382.50
2018-08-16T17:03:11.192Z,365.62
2018-08-16T17:04:11.299Z,365.62
2018-08-16T17:05:11.169Z,360.00
2018-08-16T17:06:11.164Z,360.00
2018-08-16T17:07:11.267Z,365.62
2018-08-16T17:08:11.191Z,354.38
2018-08-16T17:09:11.153Z,354.38